KWVL/WVL METAR and TAF weather

Enter ICAO airport designator
Station Type Date Time Source
KWVL METAR 2019/02/21 15:56 UTC NOAA

KWVL 211556Z AUTO 00000KT 8SM -SN OVC011 00/M04 A2977 RMK AO2 SLP112 P0000 T00001039 FZRANO


Station Type Date Time Source
KWVL Decoded METAR 2019/02/21 15:56 UTC NOAA

Waterville, Waterville Robert LaFleur Airport, ME, United States (KWVL) 44-32N 069-41W
Feb 21, 2019 - 10:56 AM EST / 2019.02.21 1556 UTC
Wind: Calm:0
Visibility: 8 mile(s):0
Sky conditions: overcast
Weather: light snow
Precipitation last hour: A trace
Temperature: 32.0 F (0.0 C)
Dew Point: 25.0 F (-3.9 C)
Relative Humidity: 74%
Pressure (altimeter): 29.77 in. Hg (1008 hPa)
ob: KWVL 211556Z AUTO 00000KT 8SM -SN OVC011 00/M04 A2977 RMK AO2 SLP112 P0000 T00001039 FZRANO
cycle: 16

Station Type Date Time Source
KWVL TAF UTC NOAA

Error!


Example: see airport list